Terminal Aerodrome Forecast
Issued by NWS Grand Forks, ND

Home | Current Version | Previous Version | Text Only | Print | Product List | Glossary On
Versions: 1 2 3 4 5 6 7 8 9 10 11 12 13 14 15 16 17 18 19 20 21 22
000
FTUS43 KFGF 232338
TAFFAR
TAF
KFAR 232338Z 2400/2424 06015G25KT P6SM SCT025 BKN050
     FM240300 07014G24KT P6SM BKN025
     FM241200 11012G20KT P6SM SCT020 BKN035
     FM241500 14010G20KT P6SM VCSH SCT025 BKN050=

USA.gov is the U.S. government's official web portal to all federal, state and local government web resources and services.